createdAt,value
2019-02-22T00:00:00.535Z,1024.87
2019-02-22T00:01:00.535Z,1024.84
2019-02-22T00:02:00.526Z,1024.86
2019-02-22T00:03:00.522Z,1024.84
2019-02-22T00:04:00.513Z,1024.86
2019-02-22T00:05:00.504Z,1024.88
2019-02-22T00:06:00.499Z,1024.89
2019-02-22T00:07:00.491Z,1024.90
2019-02-22T00:08:00.486Z,1024.88
2019-02-22T00:09:00.479Z,1024.84
2019-02-22T00:10:00.471Z,1024.83
2019-02-22T00:11:00.478Z,1024.83
2019-02-22T00:12:00.462Z,1024.82
2019-02-22T00:13:00.450Z,1024.83
2019-02-22T00:14:00.447Z,1024.80
2019-02-22T00:15:00.444Z,1024.82
2019-02-22T00:16:00.434Z,1024.78
2019-02-22T00:17:00.424Z,1024.80
2019-02-22T00:18:00.422Z,1024.81
2019-02-22T00:19:00.422Z,1024.80
2019-02-22T00:20:00.416Z,1024.82
2019-02-22T00:21:00.404Z,1024.87
2019-02-22T00:22:00.401Z,1024.87
2019-02-22T00:23:00.388Z,1024.87
2019-02-22T00:24:00.382Z,1024.86
2019-02-22T00:25:00.371Z,1024.90
2019-02-22T00:26:00.363Z,1024.88
2019-02-22T00:27:00.359Z,1024.88
2019-02-22T00:28:00.349Z,1024.91
2019-02-22T00:29:00.345Z,1024.92
2019-02-22T00:30:00.403Z,1024.93
2019-02-22T00:31:00.333Z,1024.91
2019-02-22T00:32:00.324Z,1024.92
2019-02-22T00:33:00.322Z,1024.94
2019-02-22T00:34:00.346Z,1024.95
2019-02-22T00:35:00.430Z,1024.98
2019-02-22T00:36:00.419Z,1024.98
2019-02-22T00:37:00.312Z,1024.96
2019-02-22T00:38:00.285Z,1024.95
2019-02-22T00:39:00.285Z,1024.94
2019-02-22T00:40:00.316Z,1024.99
2019-02-22T00:41:00.272Z,1024.96
2019-02-22T00:42:00.258Z,1024.99
2019-02-22T00:43:00.261Z,1024.96
2019-02-22T00:44:00.255Z,1025.03
2019-02-22T00:45:00.443Z,1024.98
2019-02-22T00:46:00.230Z,1025.03
2019-02-22T00:47:00.226Z,1024.99
2019-02-22T00:48:00.223Z,1025.04
2019-02-22T00:49:00.213Z,1025.03
2019-02-22T00:50:00.323Z,1025.08
2019-02-22T00:51:00.199Z,1025.09
2019-02-22T00:52:00.194Z,1025.11
2019-02-22T00:53:00.189Z,1025.14
2019-02-22T00:54:00.186Z,1025.20
2019-02-22T00:55:00.438Z,1025.19
2019-02-22T00:56:00.169Z,1025.19
2019-02-22T00:57:00.159Z,1025.20
2019-02-22T00:58:00.152Z,1025.22
2019-02-22T00:59:00.146Z,1025.29
2019-02-22T01:00:00.334Z,1025.28
2019-02-22T01:01:00.138Z,1025.22
2019-02-22T01:02:00.130Z,1025.29
2019-02-22T01:03:00.121Z,1025.27
2019-02-22T01:04:00.115Z,1025.24
2019-02-22T01:05:00.291Z,1025.33
2019-02-22T01:06:00.101Z,1025.35
2019-02-22T01:07:00.096Z,1025.33
2019-02-22T01:08:00.087Z,1025.35
2019-02-22T01:09:00.077Z,1025.41
2019-02-22T01:10:00.152Z,1025.41
2019-02-22T01:11:00.064Z,1025.41
2019-02-22T01:12:00.059Z,1025.35
2019-02-22T01:13:00.062Z,1025.34
2019-02-22T01:14:00.049Z,1025.36
2019-02-22T01:15:00.042Z,1025.37
2019-02-22T01:16:00.035Z,1025.38
2019-02-22T01:17:00.026Z,1025.36
2019-02-22T01:18:00.021Z,1025.38
2019-02-22T01:19:00.016Z,1025.35
2019-02-22T01:20:00.011Z,1025.37
2019-02-22T01:20:59.999Z,1025.35
2019-02-22T01:21:59.991Z,1025.32
2019-02-22T01:22:59.984Z,1025.38
2019-02-22T01:23:59.984Z,1025.41
2019-02-22T01:24:59.975Z,1025.44
2019-02-22T01:25:59.967Z,1025.43
2019-02-22T01:26:59.960Z,1025.45
2019-02-22T01:27:59.953Z,1025.42
2019-02-22T01:28:59.943Z,1025.47
2019-02-22T01:29:59.935Z,1025.44
2019-02-22T01:30:59.932Z,1025.48
2019-02-22T01:31:59.920Z,1025.48
2019-02-22T01:32:59.916Z,1025.46
2019-02-22T01:33:59.913Z,1025.45
2019-02-22T01:34:59.904Z,1025.42
2019-02-22T01:35:59.890Z,1025.43
2019-02-22T01:36:59.887Z,1025.44
2019-02-22T01:37:59.885Z,1025.43
2019-02-22T01:38:59.878Z,1025.45
2019-02-22T01:39:59.869Z,1025.46
2019-02-22T01:40:59.864Z,1025.49
2019-02-22T01:41:59.853Z,1025.46
2019-02-22T01:42:59.848Z,1025.47
2019-02-22T01:43:59.834Z,1025.43
2019-02-22T01:44:59.844Z,1025.45
2019-02-22T01:45:59.831Z,1025.43
2019-02-22T01:46:59.825Z,1025.42
2019-02-22T01:47:59.812Z,1025.40
2019-02-22T01:48:59.801Z,1025.42
2019-02-22T01:49:59.794Z,1025.44
2019-02-22T01:50:59.788Z,1025.44
2019-02-22T01:51:59.784Z,1025.38
2019-02-22T01:52:59.774Z,1025.42
2019-02-22T01:53:59.768Z,1025.41
2019-02-22T01:54:59.761Z,1025.43
2019-02-22T01:55:59.753Z,1025.44
2019-02-22T01:56:59.753Z,1025.43
2019-02-22T01:57:59.742Z,1025.45
2019-02-22T01:58:59.730Z,1025.41
2019-02-22T01:59:59.727Z,1025.42
2019-02-22T02:00:59.717Z,1025.44
2019-02-22T02:01:59.713Z,1025.43
2019-02-22T02:02:59.704Z,1025.41
2019-02-22T02:03:59.699Z,1025.42
2019-02-22T02:04:59.688Z,1025.42
2019-02-22T02:05:59.682Z,1025.41
2019-02-22T02:06:59.679Z,1025.39
2019-02-22T02:07:59.667Z,1025.32
2019-02-22T02:08:59.664Z,1025.36
2019-02-22T02:09:59.658Z,1025.36
2019-02-22T02:10:59.652Z,1025.38
2019-02-22T02:12:01.786Z,1025.30
2019-02-22T02:12:59.628Z,1025.35
2019-02-22T02:13:59.624Z,1025.32
2019-02-22T02:14:59.619Z,1025.32
2019-02-22T02:15:59.618Z,1025.28
2019-02-22T02:16:59.612Z,1025.33
2019-02-22T02:17:59.602Z,1025.35
2019-02-22T02:18:59.593Z,1025.36
2019-02-22T02:19:59.587Z,1025.37
2019-02-22T02:20:59.575Z,1025.41
2019-02-22T02:21:59.569Z,1025.40
2019-02-22T02:22:59.563Z,1025.42
2019-02-22T02:23:59.557Z,1025.38
2019-02-22T02:24:59.547Z,1025.41
2019-02-22T02:25:59.540Z,1025.47
2019-02-22T02:26:59.535Z,1025.47
2019-02-22T02:27:59.528Z,1025.49
2019-02-22T02:28:59.527Z,1025.50
2019-02-22T02:29:59.521Z,1025.50
2019-02-22T02:30:59.513Z,1025.47
2019-02-22T02:31:59.500Z,1025.54
2019-02-22T02:32:59.492Z,1025.52
2019-02-22T02:33:59.492Z,1025.55
2019-02-22T02:34:59.477Z,1025.51
2019-02-22T02:35:59.473Z,1025.53
2019-02-22T02:36:59.468Z,1025.61
2019-02-22T02:37:59.464Z,1025.59
2019-02-22T02:38:59.450Z,1025.52
2019-02-22T02:39:59.443Z,1025.50
2019-02-22T02:41:09.856Z,1025.50
2019-02-22T02:41:59.433Z,1025.54
2019-02-22T02:42:59.426Z,1025.56
2019-02-22T02:43:59.420Z,1025.55
2019-02-22T02:44:59.409Z,1025.53
2019-02-22T02:45:59.399Z,1025.51
2019-02-22T02:46:59.399Z,1025.50
2019-02-22T02:47:59.386Z,1025.54
2019-02-22T02:48:59.382Z,1025.52
2019-02-22T02:49:59.399Z,1025.49
2019-02-22T02:50:59.369Z,1025.53
2019-02-22T02:51:59.366Z,1025.53
2019-02-22T02:52:59.351Z,1025.57
2019-02-22T02:53:59.344Z,1025.57
2019-02-22T02:54:59.340Z,1025.59
2019-02-22T02:55:59.331Z,1025.59
2019-02-22T02:56:59.323Z,1025.61
2019-02-22T02:57:59.315Z,1025.61
2019-02-22T02:58:59.309Z,1025.64
2019-02-22T02:59:59.308Z,1025.59
2019-02-22T03:00:59.297Z,1025.62
2019-02-22T03:01:59.292Z,1025.62
2019-02-22T03:02:59.285Z,1025.61
2019-02-22T03:03:59.280Z,1025.61
2019-02-22T03:04:59.280Z,1025.63
2019-02-22T03:05:59.257Z,1025.63
2019-02-22T03:06:59.251Z,1025.67
2019-02-22T03:07:59.245Z,1025.64
2019-02-22T03:08:59.240Z,1025.63
2019-02-22T03:09:59.240Z,1025.62
2019-02-22T03:10:59.225Z,1025.64
2019-02-22T03:11:59.221Z,1025.66
2019-02-22T03:12:59.214Z,1025.67
2019-02-22T03:13:59.206Z,1025.63
2019-02-22T03:14:59.198Z,1025.65
2019-02-22T03:15:59.186Z,1025.70
2019-02-22T03:16:59.183Z,1025.64
2019-02-22T03:17:59.175Z,1025.69
2019-02-22T03:18:59.165Z,1025.69
2019-02-22T03:19:59.157Z,1025.69
2019-02-22T03:20:59.152Z,1025.70
2019-02-22T03:21:59.185Z,1025.73
2019-02-22T03:22:59.140Z,1025.75
2019-02-22T03:23:59.133Z,1025.74
2019-02-22T03:24:59.127Z,1025.76
2019-02-22T03:25:59.125Z,1025.79
2019-02-22T03:26:59.111Z,1025.78
2019-02-22T03:27:59.104Z,1025.82
2019-02-22T03:28:59.094Z,1025.81
2019-02-22T03:29:59.086Z,1025.78
2019-02-22T03:30:59.092Z,1025.83
2019-02-22T03:31:59.076Z,1025.80
2019-02-22T03:32:59.068Z,1025.84
2019-02-22T03:33:59.062Z,1025.85
2019-02-22T03:34:59.055Z,1025.88
2019-02-22T03:35:59.054Z,1025.83
2019-02-22T03:36:59.037Z,1025.86
2019-02-22T03:37:59.030Z,1025.87
2019-02-22T03:38:59.024Z,1025.88
2019-02-22T03:39:59.015Z,1025.85
2019-02-22T03:40:59.007Z,1025.86
2019-02-22T03:41:59.005Z,1025.85
2019-02-22T03:42:58.995Z,1025.83
2019-02-22T03:43:58.988Z,1025.84
2019-02-22T03:44:58.981Z,1025.83
2019-02-22T03:45:58.978Z,1025.86
2019-02-22T03:46:58.974Z,1025.86
2019-02-22T03:47:58.959Z,1025.87
2019-02-22T03:48:58.954Z,1025.91
2019-02-22T03:49:58.941Z,1025.97
2019-02-22T03:50:58.936Z,1025.96
2019-02-22T03:51:58.931Z,1025.99
2019-02-22T03:52:58.924Z,1026.00
2019-02-22T03:53:58.943Z,1025.98
2019-02-22T03:54:58.910Z,1025.99
2019-02-22T03:55:58.905Z,1025.99
2019-02-22T03:56:58.893Z,1026.03
2019-02-22T03:57:58.890Z,1026.06
2019-02-22T03:58:58.891Z,1026.06
2019-02-22T03:59:58.879Z,1026.05
2019-02-22T04:00:58.871Z,1026.08
2019-02-22T04:01:58.858Z,1026.12
2019-02-22T04:02:58.852Z,1026.13
2019-02-22T04:03:58.842Z,1026.11
2019-02-22T04:04:58.841Z,1026.09
2019-02-22T04:05:58.835Z,1026.08
2019-02-22T04:06:58.828Z,1026.11
2019-02-22T04:07:58.818Z,1026.11
2019-02-22T04:08:58.810Z,1026.13
2019-02-22T04:09:58.799Z,1026.14
2019-02-22T04:10:58.798Z,1026.16
2019-02-22T04:11:58.788Z,1026.15
2019-02-22T04:12:58.784Z,1026.16
2019-02-22T04:13:58.774Z,1026.13
2019-02-22T04:14:58.768Z,1026.14
2019-02-22T04:15:58.759Z,1026.16
2019-02-22T04:16:58.753Z,1026.15
2019-02-22T04:17:58.750Z,1026.18
2019-02-22T04:18:58.741Z,1026.16
2019-02-22T04:19:58.733Z,1026.17
2019-02-22T04:20:58.728Z,1026.14
2019-02-22T04:21:58.722Z,1026.13
2019-02-22T04:22:58.708Z,1026.12
2019-02-22T04:23:59.230Z,1026.14
2019-02-22T04:24:58.695Z,1026.11
2019-02-22T04:25:58.696Z,1026.14
2019-02-22T04:26:58.684Z,1026.12
2019-02-22T04:27:58.677Z,1026.15
2019-02-22T04:28:58.668Z,1026.06
2019-02-22T04:29:58.667Z,1026.09
2019-02-22T04:30:58.660Z,1026.12
2019-02-22T04:31:58.651Z,1026.16
2019-02-22T04:32:58.641Z,1026.14
2019-02-22T04:33:58.629Z,1026.13
2019-02-22T04:34:58.638Z,1026.15
2019-02-22T04:35:58.620Z,1026.17
2019-02-22T04:36:58.612Z,1026.15
2019-02-22T04:37:58.606Z,1026.19
2019-02-22T04:38:58.607Z,1026.24
2019-02-22T04:39:58.589Z,1026.24
2019-02-22T04:40:58.581Z,1026.25
2019-02-22T04:41:58.573Z,1026.26
2019-02-22T04:42:58.610Z,1026.26
2019-02-22T04:43:58.559Z,1026.26
2019-02-22T04:44:58.554Z,1026.27
2019-02-22T04:45:58.547Z,1026.31
2019-02-22T04:46:58.541Z,1026.27
2019-02-22T04:47:58.530Z,1026.29
2019-02-22T04:48:58.525Z,1026.29
2019-02-22T04:49:58.517Z,1026.30
2019-02-22T04:50:58.517Z,1026.33
2019-02-22T04:51:58.503Z,1026.31
2019-02-22T04:52:58.496Z,1026.33
2019-02-22T04:53:58.487Z,1026.32
2019-02-22T04:54:58.483Z,1026.34
2019-02-22T04:55:58.473Z,1026.36
2019-02-22T04:56:58.467Z,1026.37
2019-02-22T04:57:58.459Z,1026.38
2019-02-22T04:58:58.455Z,1026.37
2019-02-22T04:59:58.447Z,1026.41
2019-02-22T05:00:58.439Z,1026.38
2019-02-22T05:01:58.431Z,1026.42
2019-02-22T05:02:58.425Z,1026.42
2019-02-22T05:03:58.414Z,1026.40
2019-02-22T05:04:58.408Z,1026.39
2019-02-22T05:05:58.402Z,1026.39
2019-02-22T05:06:58.392Z,1026.43
2019-02-22T05:07:58.384Z,1026.40
2019-02-22T05:08:58.385Z,1026.40
2019-02-22T05:09:58.377Z,1026.45
2019-02-22T05:10:58.367Z,1026.42
2019-02-22T05:12:10.083Z,1026.44
2019-02-22T05:12:58.346Z,1026.47
2019-02-22T05:13:58.340Z,1026.48
2019-02-22T05:14:58.333Z,1026.50
2019-02-22T05:15:58.331Z,1026.50
2019-02-22T05:16:58.322Z,1026.53
2019-02-22T05:17:58.366Z,1026.57
2019-02-22T05:18:58.305Z,1026.57
2019-02-22T05:19:58.301Z,1026.60
2019-02-22T05:20:58.293Z,1026.59
2019-02-22T05:21:58.286Z,1026.60
2019-02-22T05:23:03.736Z,1026.62
2019-02-22T05:23:58.272Z,1026.66
2019-02-22T05:24:58.255Z,1026.63
2019-02-22T05:25:58.252Z,1026.68
2019-02-22T05:26:58.246Z,1026.66
2019-02-22T05:27:58.238Z,1026.68
2019-02-22T05:28:58.237Z,1026.66
2019-02-22T05:29:58.229Z,1026.67
2019-02-22T05:30:58.221Z,1026.66
2019-02-22T05:31:58.217Z,1026.63
2019-02-22T05:32:58.208Z,1026.62
2019-02-22T05:33:58.195Z,1026.68
2019-02-22T05:34:58.194Z,1026.64
2019-02-22T05:35:58.183Z,1026.68
2019-02-22T05:36:58.176Z,1026.72
2019-02-22T05:37:58.166Z,1026.72
2019-02-22T05:38:58.160Z,1026.75
2019-02-22T05:39:58.154Z,1026.74
2019-02-22T05:40:58.161Z,1026.74
2019-02-22T05:41:58.141Z,1026.76
2019-02-22T05:42:58.144Z,1026.80
2019-02-22T05:43:58.126Z,1026.81
2019-02-22T05:44:58.121Z,1026.81
2019-02-22T05:45:58.111Z,1026.79
2019-02-22T05:47:00.560Z,1026.80
2019-02-22T05:47:58.099Z,1026.84
2019-02-22T05:48:58.092Z,1026.86
2019-02-22T05:49:58.121Z,1026.82
2019-02-22T05:50:58.076Z,1026.81
2019-02-22T05:51:58.067Z,1026.78
2019-02-22T05:52:58.067Z,1026.78
2019-02-22T05:53:58.059Z,1026.75
2019-02-22T05:54:58.049Z,1026.70
2019-02-22T05:55:58.044Z,1026.69
2019-02-22T05:56:58.035Z,1026.73
2019-02-22T05:57:58.028Z,1026.79
2019-02-22T05:58:58.019Z,1026.79
2019-02-22T05:59:58.013Z,1026.80
2019-02-22T06:00:58.013Z,1026.88
2019-02-22T06:01:58.030Z,1026.86
2019-02-22T06:02:57.989Z,1026.85
2019-02-22T06:03:57.987Z,1026.88
2019-02-22T06:04:57.974Z,1026.87
2019-02-22T06:05:57.970Z,1026.87
2019-02-22T06:06:57.967Z,1026.90
2019-02-22T06:07:57.963Z,1026.95
2019-02-22T06:08:57.948Z,1026.96
2019-02-22T06:09:57.944Z,1026.98
2019-02-22T06:10:57.935Z,1027.03
2019-02-22T06:11:57.929Z,1027.03
2019-02-22T06:12:57.923Z,1027.10
2019-02-22T06:13:57.917Z,1027.08
2019-02-22T06:14:57.912Z,1027.11
2019-02-22T06:15:57.904Z,1027.10
2019-02-22T06:16:57.893Z,1027.12
2019-02-22T06:17:57.887Z,1027.11
2019-02-22T06:18:57.886Z,1027.16
2019-02-22T06:19:57.873Z,1027.18
2019-02-22T06:20:57.869Z,1027.21
2019-02-22T06:21:57.863Z,1027.20
2019-02-22T06:22:57.853Z,1027.23
2019-02-22T06:23:57.847Z,1027.23
2019-02-22T06:24:57.840Z,1027.23
2019-02-22T06:25:57.840Z,1027.27
2019-02-22T06:26:57.836Z,1027.32
2019-02-22T06:27:57.823Z,1027.32
2019-02-22T06:28:57.809Z,1027.34
2019-02-22T06:29:57.802Z,1027.38
2019-02-22T06:30:57.804Z,1027.37
2019-02-22T06:31:57.796Z,1027.39
2019-02-22T06:32:57.783Z,1027.39
2019-02-22T06:33:57.782Z,1027.33
2019-02-22T06:34:57.772Z,1027.38
2019-02-22T06:35:57.767Z,1027.35
2019-02-22T06:37:01.837Z,1027.42
2019-02-22T06:38:24.465Z,1027.46
2019-02-22T06:43:59.592Z,1027.53
2019-02-22T06:44:36.982Z,1027.55
2019-02-22T06:45:36.993Z,1027.52
2019-02-22T06:46:36.972Z,1027.54
2019-02-22T06:47:36.966Z,1027.57
2019-02-22T06:48:36.956Z,1027.57
2019-02-22T06:49:36.953Z,1027.60
2019-02-22T06:50:36.942Z,1027.60
2019-02-22T06:51:36.939Z,1027.59
2019-02-22T06:52:36.933Z,1027.58
2019-02-22T06:53:36.921Z,1027.58
2019-02-22T06:54:36.917Z,1027.55
2019-02-22T06:55:36.913Z,1027.55
2019-02-22T06:56:36.913Z,1027.52
2019-02-22T06:57:36.896Z,1027.53
2019-02-22T06:58:36.894Z,1027.56
2019-02-22T06:59:36.885Z,1027.55
2019-02-22T07:00:36.881Z,1027.54
2019-02-22T07:01:36.867Z,1027.57
2019-02-22T07:02:36.864Z,1027.61
2019-02-22T07:03:36.857Z,1027.65
2019-02-22T07:04:36.851Z,1027.70
2019-02-22T07:05:36.838Z,1027.71
2019-02-22T07:06:36.836Z,1027.69
2019-02-22T07:07:36.830Z,1027.71
2019-02-22T07:08:36.823Z,1027.72
2019-02-22T07:09:36.814Z,1027.72
2019-02-22T07:10:36.809Z,1027.77
2019-02-22T07:11:37.831Z,1027.79
2019-02-22T07:12:36.806Z,1027.76
2019-02-22T07:13:36.794Z,1027.82
2019-02-22T07:14:36.782Z,1027.80
2019-02-22T07:15:36.774Z,1027.81
2019-02-22T07:16:36.771Z,1027.83
2019-02-22T07:17:36.761Z,1027.85
2019-02-22T07:18:36.754Z,1027.86
2019-02-22T07:19:36.747Z,1027.88
2019-02-22T07:20:36.738Z,1027.89
2019-02-22T07:21:49.353Z,1027.91
2019-02-22T07:22:36.723Z,1027.89
2019-02-22T07:23:36.718Z,1027.89
2019-02-22T07:24:36.717Z,1027.91
2019-02-22T07:25:36.703Z,1027.89
2019-02-22T07:26:36.697Z,1027.89
2019-02-22T07:27:36.694Z,1027.87
2019-02-22T07:28:36.685Z,1027.87
2019-02-22T07:29:36.682Z,1027.86
2019-02-22T07:30:36.673Z,1027.88
2019-02-22T07:31:36.673Z,1027.86
2019-02-22T07:32:36.660Z,1027.88
2019-02-22T07:33:36.649Z,1027.89
2019-02-22T07:34:36.644Z,1027.91
2019-02-22T07:35:36.640Z,1027.88
2019-02-22T07:36:36.633Z,1027.89
2019-02-22T07:37:36.623Z,1027.88
2019-02-22T07:38:36.620Z,1027.85
2019-02-22T07:39:36.610Z,1027.92
2019-02-22T07:40:36.607Z,1027.90
2019-02-22T07:41:36.601Z,1027.94
2019-02-22T07:42:36.592Z,1027.96
2019-02-22T07:43:36.583Z,1027.97
2019-02-22T07:44:36.578Z,1027.99
2019-02-22T07:45:36.569Z,1028.02
2019-02-22T07:46:36.560Z,1028.05
2019-02-22T07:47:36.554Z,1028.05
2019-02-22T07:48:36.549Z,1028.06
2019-02-22T07:49:36.545Z,1028.09
2019-02-22T07:50:36.543Z,1028.06
2019-02-22T07:51:36.529Z,1028.11
2019-02-22T07:52:36.520Z,1028.16
2019-02-22T07:53:36.523Z,1028.15
2019-02-22T07:54:36.511Z,1028.14
2019-02-22T07:55:36.504Z,1028.20
2019-02-22T07:56:36.501Z,1028.24
2019-02-22T07:57:36.492Z,1028.26
2019-02-22T07:58:36.481Z,1028.25
2019-02-22T07:59:36.481Z,1028.25
2019-02-22T08:00:36.468Z,1028.28
2019-02-22T08:01:46.889Z,1028.24
2019-02-22T08:02:36.454Z,1028.28
2019-02-22T08:03:37.431Z,1028.32
2019-02-22T08:04:36.444Z,1028.33
2019-02-22T08:05:36.434Z,1028.37
2019-02-22T08:06:36.432Z,1028.37
2019-02-22T08:07:36.423Z,1028.40
2019-02-22T08:08:36.432Z,1028.40
2019-02-22T08:09:36.418Z,1028.40
2019-02-22T08:10:36.401Z,1028.38
2019-02-22T08:11:36.401Z,1028.36
2019-02-22T08:12:36.387Z,1028.41
2019-02-22T08:13:36.384Z,1028.37
2019-02-22T08:14:36.377Z,1028.38
2019-02-22T08:15:36.371Z,1028.44
2019-02-22T08:16:36.365Z,1028.40
2019-02-22T08:17:36.352Z,1028.44
2019-02-22T08:18:36.349Z,1028.48
2019-02-22T08:19:36.343Z,1028.50
2019-02-22T08:20:36.335Z,1028.52
2019-02-22T08:21:36.326Z,1028.58
2019-02-22T08:22:36.325Z,1028.59
2019-02-22T08:23:36.317Z,1028.61
2019-02-22T08:24:36.309Z,1028.63
2019-02-22T08:25:36.304Z,1028.64
2019-02-22T08:26:36.302Z,1028.59
2019-02-22T08:27:36.293Z,1028.61
2019-02-22T08:28:36.288Z,1028.61
2019-02-22T08:29:38.268Z,1028.63
2019-02-22T08:30:36.270Z,1028.65
2019-02-22T08:31:36.267Z,1028.69
2019-02-22T08:32:36.257Z,1028.69
2019-02-22T08:33:36.253Z,1028.73
2019-02-22T08:34:36.245Z,1028.77
2019-02-22T08:35:36.245Z,1028.77
2019-02-22T08:36:36.236Z,1028.78
2019-02-22T08:37:36.228Z,1028.76
2019-02-22T08:38:36.220Z,1028.79
2019-02-22T08:39:36.225Z,1028.80
2019-02-22T08:40:36.209Z,1028.83
2019-02-22T08:41:36.197Z,1028.83
2019-02-22T08:42:36.192Z,1028.83
2019-02-22T08:43:36.185Z,1028.87
2019-02-22T08:44:36.179Z,1028.86
2019-02-22T08:45:36.236Z,1028.90
2019-02-22T08:46:36.170Z,1028.88
2019-02-22T08:47:36.161Z,1028.91
2019-02-22T08:48:36.156Z,1028.95
2019-02-22T08:49:36.150Z,1028.97
2019-02-22T08:50:36.150Z,1028.96
2019-02-22T08:51:36.138Z,1029.02
2019-02-22T08:52:36.133Z,1029.04
2019-02-22T08:53:36.135Z,1029.03
2019-02-22T08:54:46.674Z,1029.09
2019-02-22T08:55:36.777Z,1029.06
2019-02-22T08:56:36.108Z,1029.09
2019-02-22T08:57:36.102Z,1029.09
2019-02-22T08:58:36.094Z,1029.13
2019-02-22T08:59:36.088Z,1029.16
2019-02-22T09:00:36.083Z,1029.15
2019-02-22T09:01:36.078Z,1029.15
2019-02-22T09:02:36.078Z,1029.16
2019-02-22T09:03:36.063Z,1029.17
2019-02-22T09:04:36.060Z,1029.20
2019-02-22T09:05:36.047Z,1029.22
2019-02-22T09:06:36.045Z,1029.21
2019-02-22T09:07:36.040Z,1029.23
2019-02-22T09:08:36.042Z,1029.26
2019-02-22T09:09:36.029Z,1029.28
2019-02-22T09:10:36.021Z,1029.30
2019-02-22T09:11:36.016Z,1029.32
2019-02-22T09:12:36.007Z,1029.36
2019-02-22T09:13:43.675Z,1029.38
2019-02-22T09:14:35.996Z,1029.37
2019-02-22T09:15:35.993Z,1029.37
2019-02-22T09:16:36.119Z,1029.39
2019-02-22T09:17:35.975Z,1029.37
2019-02-22T09:18:35.977Z,1029.40
2019-02-22T09:19:35.964Z,1029.41
2019-02-22T09:20:35.953Z,1029.43
2019-02-22T09:21:35.955Z,1029.41
2019-02-22T09:22:35.950Z,1029.41
2019-02-22T09:23:35.940Z,1029.40
2019-02-22T09:24:35.939Z,1029.46
2019-02-22T09:25:35.929Z,1029.46
2019-02-22T09:26:35.925Z,1029.48
2019-02-22T09:27:35.921Z,1029.48
2019-02-22T09:28:35.914Z,1029.54
2019-02-22T09:29:35.907Z,1029.54
2019-02-22T09:30:35.897Z,1029.57
2019-02-22T09:31:35.891Z,1029.51
2019-02-22T09:32:35.885Z,1029.53
2019-02-22T09:33:35.884Z,1029.55
2019-02-22T09:34:35.876Z,1029.52
2019-02-22T09:35:35.967Z,1029.58
2019-02-22T09:36:35.864Z,1029.54
2019-02-22T09:37:35.854Z,1029.56
2019-02-22T09:38:35.852Z,1029.55
2019-02-22T09:39:35.845Z,1029.57
2019-02-22T09:40:35.837Z,1029.64
2019-02-22T09:41:35.836Z,1029.63
2019-02-22T09:42:35.828Z,1029.66
2019-02-22T09:43:35.816Z,1029.71
2019-02-22T09:44:35.814Z,1029.72
2019-02-22T09:45:35.815Z,1029.69
2019-02-22T09:46:35.813Z,1029.69
2019-02-22T09:47:35.800Z,1029.70
2019-02-22T09:48:35.796Z,1029.69
2019-02-22T09:49:35.784Z,1029.68
2019-02-22T09:50:35.807Z,1029.72
2019-02-22T09:51:35.817Z,1029.67
2019-02-22T09:52:35.767Z,1029.69
2019-02-22T09:53:35.767Z,1029.67
2019-02-22T09:54:35.759Z,1029.64
2019-02-22T09:55:35.750Z,1029.68
2019-02-22T09:56:35.746Z,1029.67
2019-02-22T09:57:35.739Z,1029.63
2019-02-22T09:58:35.733Z,1029.65
2019-02-22T09:59:35.734Z,1029.68
2019-02-22T10:00:35.727Z,1029.66
2019-02-22T10:01:35.720Z,1029.63
2019-02-22T10:02:35.717Z,1029.66
2019-02-22T10:03:35.707Z,1029.65
2019-02-22T10:04:35.700Z,1029.66
2019-02-22T10:05:35.698Z,1029.66
2019-02-22T10:06:35.695Z,1029.66
2019-02-22T10:07:35.690Z,1029.66
2019-02-22T10:08:35.681Z,1029.64
2019-02-22T10:09:35.674Z,1029.66
2019-02-22T10:10:35.670Z,1029.67
2019-02-22T10:11:35.663Z,1029.64
2019-02-22T10:12:35.659Z,1029.66
2019-02-22T10:13:35.655Z,1029.65
2019-02-22T10:14:35.645Z,1029.67
2019-02-22T10:15:35.643Z,1029.67
2019-02-22T10:16:35.636Z,1029.65
2019-02-22T10:17:35.635Z,1029.66
2019-02-22T10:18:35.627Z,1029.65
2019-02-22T10:19:35.626Z,1029.65
2019-02-22T10:20:35.625Z,1029.66
2019-02-22T10:21:35.615Z,1029.68
2019-02-22T10:22:35.604Z,1029.68
2019-02-22T10:23:35.600Z,1029.68
2019-02-22T10:24:35.600Z,1029.73
2019-02-22T10:25:35.592Z,1029.76
2019-02-22T10:26:35.588Z,1029.78
2019-02-22T10:27:35.583Z,1029.74
2019-02-22T10:28:35.579Z,1029.79
2019-02-22T10:29:35.569Z,1029.77
2019-02-22T10:30:35.567Z,1029.70
2019-02-22T10:31:35.563Z,1029.77
2019-02-22T10:32:35.562Z,1029.73
2019-02-22T10:33:36.907Z,1029.71
2019-02-22T10:34:35.550Z,1029.72
2019-02-22T10:35:35.542Z,1029.68
2019-02-22T10:36:44.649Z,1029.75
2019-02-22T10:37:35.531Z,1029.73
2019-02-22T10:38:36.084Z,1029.73
2019-02-22T10:39:35.526Z,1029.74
2019-02-22T10:40:35.527Z,1029.78
2019-02-22T10:41:35.513Z,1029.78
2019-02-22T10:42:35.510Z,1029.77
2019-02-22T10:43:35.498Z,1029.82
2019-02-22T10:44:35.503Z,1029.87
2019-02-22T10:45:37.008Z,1029.90
2019-02-22T10:46:35.498Z,1029.87
2019-02-22T10:47:35.488Z,1029.91
2019-02-22T10:48:35.481Z,1029.93
2019-02-22T10:49:35.479Z,1029.92
2019-02-22T10:50:35.474Z,1029.94
2019-02-22T10:51:35.509Z,1029.95
2019-02-22T10:52:35.463Z,1029.95
2019-02-22T10:53:35.456Z,1029.92
2019-02-22T10:54:35.455Z,1029.97
2019-02-22T10:55:35.450Z,1029.99
2019-02-22T10:56:35.445Z,1030.00
2019-02-22T10:57:35.452Z,1029.92
2019-02-22T10:58:35.434Z,1029.93
2019-02-22T10:59:35.463Z,1029.94
2019-02-22T11:00:35.433Z,1029.91
2019-02-22T11:01:35.421Z,1029.91
2019-02-22T11:02:35.422Z,1029.89
2019-02-22T11:03:35.410Z,1029.87
2019-02-22T11:04:35.407Z,1029.91
2019-02-22T11:05:35.399Z,1029.93
2019-02-22T11:06:35.394Z,1029.92
2019-02-22T11:07:37.212Z,1029.92
2019-02-22T11:08:35.390Z,1029.92
2019-02-22T11:09:35.382Z,1029.93
2019-02-22T11:10:35.388Z,1029.95
2019-02-22T11:11:35.373Z,1029.90
2019-02-22T11:12:35.367Z,1029.92
2019-02-22T11:13:35.362Z,1029.90
2019-02-22T11:14:35.359Z,1029.90
2019-02-22T11:15:35.354Z,1029.91
2019-02-22T11:16:35.367Z,1029.92
2019-02-22T11:17:35.351Z,1029.86
2019-02-22T11:18:35.343Z,1029.92
2019-02-22T11:19:35.341Z,1029.93
2019-02-22T11:20:35.332Z,1029.90
2019-02-22T11:21:35.332Z,1029.91
2019-02-22T11:22:35.327Z,1029.94
2019-02-22T11:23:35.330Z,1029.96
2019-02-22T11:24:35.320Z,1029.94
2019-02-22T11:25:35.312Z,1029.95
2019-02-22T11:26:35.309Z,1029.92
2019-02-22T11:27:35.306Z,1029.91
2019-02-22T11:28:35.304Z,1029.93
2019-02-22T11:29:35.301Z,1029.95
2019-02-22T11:30:35.298Z,1029.89
2019-02-22T11:31:35.294Z,1029.93
2019-02-22T11:32:35.290Z,1029.93
2019-02-22T11:33:35.282Z,1029.91
2019-02-22T11:34:35.280Z,1029.92
2019-02-22T11:35:35.280Z,1029.91
2019-02-22T11:36:35.274Z,1029.92
2019-02-22T11:37:35.270Z,1029.94
2019-02-22T11:38:35.265Z,1029.91
2019-02-22T11:39:35.261Z,1029.93
2019-02-22T11:40:35.272Z,1029.95
2019-02-22T11:41:35.256Z,1029.94
2019-02-22T11:42:35.252Z,1029.94
2019-02-22T11:43:35.248Z,1029.96
2019-02-22T11:44:40.141Z,1029.99
2019-02-22T11:45:35.238Z,1030.00
2019-02-22T11:46:35.254Z,1029.98
2019-02-22T11:47:35.234Z,1029.95
2019-02-22T11:48:35.236Z,1029.95
2019-02-22T11:49:35.226Z,1029.93
2019-02-22T11:50:35.224Z,1029.92
2019-02-22T11:51:35.219Z,1029.91
2019-02-22T11:52:35.223Z,1029.93
2019-02-22T11:53:35.212Z,1029.95
2019-02-22T11:54:35.207Z,1029.93
2019-02-22T11:55:35.231Z,1030.02
2019-02-22T11:56:35.201Z,1029.97
2019-02-22T11:57:35.197Z,1029.99
2019-02-22T11:58:35.213Z,1029.95
2019-02-22T11:59:35.188Z,1029.98
2019-02-22T12:00:35.186Z,1029.98
2019-02-22T12:01:35.184Z,1029.92
2019-02-22T12:02:35.181Z,1029.93
2019-02-22T12:03:35.179Z,1029.95
2019-02-22T12:04:35.174Z,1029.89
2019-02-22T12:05:35.173Z,1029.86
2019-02-22T12:06:35.175Z,1029.87
2019-02-22T12:07:35.162Z,1029.85
2019-02-22T12:08:35.158Z,1029.85
2019-02-22T12:09:35.151Z,1029.85